Time;durP1;ratioP1;P1;durP2;ratioP2;P2;SDS_P1;SDS_P2;PMS_P1;PMS_P2;Temp;Humidity;BMP_temperature;BMP_pressure;BME280_temperature;BME280_humidity;BME280_pressure;Samples;Min_cycle;Max_cycle;Signal;HPM_P1;HPM_P2
2021/10/06 00:01:32;;;;;;;3.33;1.20;;;18.20;99.90;;;;;;4996249;28;20033;-68
2021/10/06 00:03:58;;;;;;;3.20;1.30;;;18.10;99.90;;;;;;5013578;28;20151;-68
2021/10/06 00:06:24;;;;;;;4.20;1.65;;;18.10;99.90;;;;;;5014266;28;20018;-69
2021/10/06 00:08:49;;;;;;;2.90;1.08;;;18.10;99.90;;;;;;5013590;28;20502;-69
2021/10/06 00:11:15;;;;;;;2.35;1.10;;;18.10;99.90;;;;;;5013451;28;20049;-68
2021/10/06 00:13:41;;;;;;;3.70;1.23;;;18.10;99.90;;;;;;5013626;28;20425;-68
2021/10/06 00:16:09;;;;;;;2.45;1.20;;;18.10;99.90;;;;;;5013922;28;20120;-68
2021/10/06 00:18:36;;;;;;;2.40;1.00;;;18.10;99.90;;;;;;5013067;28;20057;-68
2021/10/06 00:21:01;;;;;;;5.55;1.55;;;18.10;99.90;;;;;;5013766;28;20033;-68
2021/10/06 00:23:30;;;;;;;2.80;1.25;;;18.10;99.90;;;;;;5013507;28;20418;-68
2021/10/06 00:25:56;;;;;;;2.88;1.38;;;18.10;99.90;;;;;;5013834;28;20060;-68
2021/10/06 00:28:21;;;;;;;3.65;1.10;;;18.10;99.90;;;;;;5013814;28;20065;-69
2021/10/06 00:30:47;;;;;;;4.88;1.45;;;18.00;99.90;;;;;;4995714;28;20022;-68
2021/10/06 00:33:12;;;;;;;2.58;1.00;;;18.00;99.90;;;;;;5013354;28;20025;-68
2021/10/06 00:35:38;;;;;;;4.40;1.20;;;18.00;99.90;;;;;;5012839;28;20482;-68
2021/10/06 00:38:03;;;;;;;3.40;1.38;;;18.00;99.90;;;;;;5013416;28;20034;-68
2021/10/06 00:40:29;;;;;;;3.75;1.05;;;18.00;99.90;;;;;;5012719;28;20033;-68
2021/10/06 00:42:55;;;;;;;4.13;1.10;;;18.00;99.90;;;;;;5013401;28;20026;-68
2021/10/06 00:45:20;;;;;;;3.92;1.40;;;18.00;99.90;;;;;;5014040;28;20038;-68
2021/10/06 00:47:46;;;;;;;2.95;1.20;;;18.00;99.90;;;;;;5013106;28;20022;-68
2021/10/06 00:50:12;;;;;;;3.03;0.95;;;18.00;99.90;;;;;;4997190;28;20108;-68
2021/10/06 00:52:37;;;;;;;4.03;1.20;;;18.00;99.90;;;;;;4993368;28;20120;-68
2021/10/06 00:55:04;;;;;;;1.80;1.00;;;18.00;99.90;;;;;;4975918;28;20609;-69
2021/10/06 00:57:29;;;;;;;2.58;0.98;;;18.00;99.90;;;;;;4993217;28;20434;-68
2021/10/06 00:59:56;;;;;;;3.28;1.08;;;18.00;99.90;;;;;;4993708;28;20026;-69
2021/10/06 01:02:22;;;;;;;1.55;0.73;;;18.00;99.90;;;;;;4993618;28;20385;-67
2021/10/06 01:04:48;;;;;;;2.95;0.90;;;18.00;99.90;;;;;;4992807;28;20026;-68
2021/10/06 01:07:13;;;;;;;3.35;0.93;;;18.00;99.90;;;;;;4993107;28;20552;-69
2021/10/06 01:09:40;;;;;;;2.78;1.10;;;17.90;99.90;;;;;;4975784;28;20026;-69
2021/10/06 01:12:06;;;;;;;3.10;1.10;;;17.90;99.90;;;;;;4993039;28;20034;-69
2021/10/06 01:14:32;;;;;;;4.93;1.30;;;17.90;99.90;;;;;;4992764;28;20097;-69
2021/10/06 01:16:58;;;;;;;2.92;0.98;;;17.90;99.90;;;;;;4993304;28;20026;-68
2021/10/06 01:19:26;;;;;;;12.38;1.10;;;17.90;99.90;;;;;;4993136;28;20054;-68
2021/10/06 01:21:53;;;;;;;3.45;0.80;;;17.90;99.90;;;;;;4993206;28;20033;-68
2021/10/06 01:24:20;;;;;;;2.35;1.10;;;17.90;99.90;;;;;;4992950;28;20457;-68
2021/10/06 01:26:46;;;;;;;2.50;1.10;;;17.90;99.90;;;;;;4992592;28;20096;-68
2021/10/06 01:29:14;;;;;;;3.55;1.17;;;17.90;99.90;;;;;;4992782;28;20466;-68
2021/10/06 01:31:41;;;;;;;2.20;0.90;;;17.90;99.90;;;;;;4992486;28;20484;-68
2021/10/06 01:34:08;;;;;;;2.75;0.90;;;17.90;99.90;;;;;;4998809;28;20081;-68
2021/10/06 01:36:35;;;;;;;2.22;0.80;;;17.90;99.90;;;;;;5012308;28;20109;-68
2021/10/06 01:39:00;;;;;;;3.63;0.90;;;17.90;99.90;;;;;;5012166;28;20018;-68
2021/10/06 01:41:31;;;;;;;4.13;1.00;;;17.90;99.90;;;;;;5012006;28;20491;-68
2021/10/06 01:43:57;;;;;;;3.53;0.95;;;17.90;99.90;;;;;;5007304;28;20495;-68
2021/10/06 01:46:23;;;;;;;3.53;0.90;;;17.90;99.90;;;;;;4992592;28;20034;-68
2021/10/06 01:48:48;;;;;;;2.45;0.80;;;17.90;99.90;;;;;;4978474;28;20385;-68
2021/10/06 01:51:14;;;;;;;3.00;1.00;;;17.90;99.90;;;;;;5012055;28;20037;-68
2021/10/06 01:53:40;;;;;;;2.20;1.02;;;17.90;99.90;;;;;;5011862;28;20022;-69
2021/10/06 01:56:06;;;;;;;1.85;0.80;;;17.80;99.90;;;;;;5011472;28;20022;-68
2021/10/06 01:58:32;;;;;;;2.15;0.88;;;17.80;99.90;;;;;;5011276;28;20175;-69
2021/10/06 02:00:58;;;;;;;2.25;0.77;;;17.80;99.90;;;;;;5011744;28;20541;-68
2021/10/06 02:03:24;;;;;;;3.22;1.05;;;17.80;99.90;;;;;;4996652;28;20500;-68
2021/10/06 02:05:50;;;;;;;3.25;1.00;;;17.80;99.90;;;;;;4992177;28;20022;-69
2021/10/06 02:08:17;;;;;;;4.35;0.90;;;17.80;99.90;;;;;;5002527;28;20044;-68
2021/10/06 02:10:43;;;;;;;3.20;1.08;;;17.80;99.90;;;;;;5011651;28;20037;-67
2021/10/06 02:13:10;;;;;;;2.55;0.77;;;17.80;99.90;;;;;;5011730;28;20022;-69
2021/10/06 02:15:35;;;;;;;2.63;0.95;;;17.80;99.90;;;;;;5011568;28;20034;-68
2021/10/06 02:18:01;;;;;;;1.45;0.88;;;17.80;99.90;;;;;;4993501;28;20040;-68
2021/10/06 02:20:27;;;;;;;3.13;0.70;;;17.80;99.90;;;;;;5007756;28;20545;-68
2021/10/06 02:22:53;;;;;;;1.83;0.70;;;17.70;99.90;;;;;;4999543;28;20058;-69
2021/10/06 02:25:19;;;;;;;1.83;0.70;;;17.80;99.90;;;;;;5011740;28;20449;-68
2021/10/06 02:27:45;;;;;;;2.97;0.77;;;17.80;99.90;;;;;;4997149;28;20031;-69
2021/10/06 02:30:12;;;;;;;2.88;0.70;;;17.80;99.90;;;;;;4992005;28;20045;-69
2021/10/06 02:32:38;;;;;;;3.08;0.93;;;17.80;99.90;;;;;;4991812;28;20042;-69
2021/10/06 02:35:07;;;;;;;4.72;0.70;;;17.80;99.90;;;;;;4991975;28;20031;-69
2021/10/06 02:37:32;;;;;;;1.88;0.50;;;17.70;99.90;;;;;;4991727;28;20032;-69
2021/10/06 02:39:58;;;;;;;3.95;0.60;;;17.70;99.90;;;;;;4992049;28;20097;-69
2021/10/06 02:42:24;;;;;;;1.40;0.70;;;17.70;99.90;;;;;;4992322;28;20057;-68
2021/10/06 02:44:50;;;;;;;2.78;0.60;;;17.70;99.90;;;;;;4997664;28;20036;-69
2021/10/06 02:47:15;;;;;;;2.47;0.90;;;17.70;99.90;;;;;;5011486;28;20029;-69
2021/10/06 02:49:41;;;;;;;3.03;0.90;;;17.70;99.90;;;;;;5010892;28;20034;-69
2021/10/06 02:52:07;;;;;;;2.75;0.73;;;17.70;99.90;;;;;;5011036;28;20040;-68
2021/10/06 02:54:32;;;;;;;2.65;0.88;;;17.70;99.90;;;;;;5010967;28;20161;-69
2021/10/06 02:57:01;;;;;;;2.47;0.70;;;17.70;99.90;;;;;;5011534;28;20030;-69
2021/10/06 02:59:31;;;;;;;1.27;0.70;;;17.70;99.90;;;;;;5013288;28;20070;-70
2021/10/06 03:01:56;;;;;;;3.28;0.70;;;17.70;99.90;;;;;;5014948;28;20124;-70
2021/10/06 03:04:23;;;;;;;2.63;1.00;;;17.70;99.90;;;;;;5014799;28;20068;-69
2021/10/06 03:06:49;;;;;;;2.33;0.68;;;17.60;99.90;;;;;;4997021;28;20030;-70
2021/10/06 03:09:15;;;;;;;2.05;0.63;;;17.60;99.90;;;;;;5015012;28;20096;-70
2021/10/06 03:11:40;;;;;;;1.75;0.60;;;17.70;99.90;;;;;;5014819;28;20169;-70
2021/10/06 03:14:06;;;;;;;1.20;0.60;;;17.70;99.90;;;;;;5014997;28;20030;-70
2021/10/06 03:16:32;;;;;;;2.83;0.85;;;17.60;99.90;;;;;;4996708;28;20030;-69
2021/10/06 03:18:57;;;;;;;3.13;0.82;;;17.60;99.90;;;;;;5014510;28;20109;-70
2021/10/06 03:21:23;;;;;;;3.42;0.93;;;17.60;99.90;;;;;;5013677;28;20030;-69
2021/10/06 03:23:49;;;;;;;3.72;0.98;;;17.60;99.90;;;;;;5014555;28;20053;-70
2021/10/06 03:26:14;;;;;;;2.72;0.80;;;17.60;99.90;;;;;;5013365;28;20022;-70
2021/10/06 03:28:40;;;;;;;2.33;0.70;;;17.60;99.90;;;;;;5014088;28;20430;-69
2021/10/06 03:31:06;;;;;;;2.50;0.70;;;17.60;99.90;;;;;;5003392;28;20120;-69
2021/10/06 03:33:31;;;;;;;1.60;0.70;;;17.60;99.90;;;;;;4995250;28;20533;-69
2021/10/06 03:35:57;;;;;;;2.42;0.68;;;17.60;99.90;;;;;;5014089;28;20053;-69
2021/10/06 03:38:23;;;;;;;2.53;0.75;;;17.60;99.90;;;;;;5014614;28;20096;-70
2021/10/06 03:40:48;;;;;;;3.65;0.93;;;17.60;99.90;;;;;;5014054;28;20034;-69
2021/10/06 03:43:14;;;;;;;3.35;0.70;;;17.60;99.90;;;;;;5014322;28;20030;-69
2021/10/06 03:45:40;;;;;;;2.35;0.77;;;17.50;99.90;;;;;;5014173;28;20017;-69
2021/10/06 03:48:06;;;;;;;1.67;0.70;;;17.60;99.90;;;;;;4995125;28;20031;-69
2021/10/06 03:50:32;;;;;;;2.88;0.73;;;17.50;99.90;;;;;;5010864;28;20034;-68
2021/10/06 03:52:57;;;;;;;1.48;0.70;;;17.50;99.90;;;;;;5013821;28;20036;-69
2021/10/06 03:55:23;;;;;;;2.53;0.70;;;17.50;99.90;;;;;;5014698;28;20155;-69
2021/10/06 03:57:48;;;;;;;5.72;0.95;;;17.50;99.90;;;;;;5013954;28;20493;-70
2021/10/06 04:00:14;;;;;;;3.10;0.77;;;17.50;99.90;;;;;;5014069;28;20108;-69
2021/10/06 04:02:40;;;;;;;1.27;0.40;;;17.50;99.90;;;;;;5014053;28;20062;-69
2021/10/06 04:05:07;;;;;;;2.92;0.77;;;17.50;99.90;;;;;;5013218;28;20029;-68
2021/10/06 04:07:33;;;;;;;1.58;0.70;;;17.50;99.90;;;;;;5013423;28;20065;-69
2021/10/06 04:09:59;;;;;;;2.35;0.60;;;17.50;99.90;;;;;;5012792;28;20022;-69
2021/10/06 04:12:24;;;;;;;1.65;0.70;;;17.50;99.90;;;;;;5013215;28;20533;-69
2021/10/06 04:14:50;;;;;;;2.60;0.75;;;17.50;99.90;;;;;;4999082;28;20110;-69
2021/10/06 04:17:15;;;;;;;2.22;0.65;;;17.50;99.90;;;;;;4994124;28;20073;-70
2021/10/06 04:19:41;;;;;;;2.42;0.80;;;17.40;99.90;;;;;;4993791;28;20034;-69
2021/10/06 04:22:07;;;;;;;2.35;0.63;;;17.50;99.90;;;;;;4994014;28;20050;-69
2021/10/06 04:24:32;;;;;;;2.10;0.68;;;17.50;99.90;;;;;;4993893;28;20084;-68
2021/10/06 04:26:58;;;;;;;4.28;0.70;;;17.50;99.90;;;;;;4993716;28;20030;-69
2021/10/06 04:29:24;;;;;;;2.92;0.70;;;17.50;99.90;;;;;;4994237;28;20397;-69
2021/10/06 04:31:49;;;;;;;2.28;0.75;;;17.40;99.90;;;;;;4993623;28;20049;-69
2021/10/06 04:34:15;;;;;;;2.97;0.60;;;17.40;99.90;;;;;;4993441;28;20109;-68
2021/10/06 04:36:42;;;;;;;3.97;0.50;;;17.40;99.90;;;;;;4976374;28;20050;-69
2021/10/06 04:39:07;;;;;;;2.97;0.65;;;17.40;99.90;;;;;;4993612;28;20042;-69
2021/10/06 04:41:33;;;;;;;3.22;0.57;;;17.40;99.90;;;;;;4993590;28;20062;-69
2021/10/06 04:44:01;;;;;;;3.50;0.47;;;17.40;99.90;;;;;;4993265;28;20027;-68
2021/10/06 04:46:28;;;;;;;4.15;0.70;;;17.40;99.90;;;;;;4993763;28;20088;-68
2021/10/06 04:48:53;;;;;;;3.60;0.70;;;17.40;99.90;;;;;;4995905;28;20061;-70
2021/10/06 04:51:19;;;;;;;5.22;0.90;;;17.40;99.90;;;;;;5013162;28;20104;-74
2021/10/06 04:53:44;;;;;;;2.20;0.50;;;17.40;99.90;;;;;;5012768;28;20022;-72
2021/10/06 04:56:10;;;;;;;2.08;0.70;;;17.40;99.90;;;;;;5013025;28;20101;-72
2021/10/06 04:58:36;;;;;;;3.38;0.60;;;17.40;99.90;;;;;;5012837;28;20018;-74
2021/10/06 05:01:02;;;;;;;3.80;0.70;;;17.40;99.90;;;;;;5010939;28;20112;-72
2021/10/06 05:03:28;;;;;;;3.05;0.60;;;17.40;99.90;;;;;;5013115;28;20393;-73
2021/10/06 05:05:53;;;;;;;2.25;0.63;;;17.40;99.90;;;;;;5012007;28;20028;-69
2021/10/06 05:08:19;;;;;;;2.55;0.60;;;17.40;99.90;;;;;;5012749;28;20919;-71
2021/10/06 05:10:44;;;;;;;2.08;0.57;;;17.40;99.90;;;;;;5012498;28;20060;-69
2021/10/06 05:13:10;;;;;;;2.28;0.45;;;17.40;99.90;;;;;;5012858;28;20466;-72
2021/10/06 05:15:36;;;;;;;3.95;0.70;;;17.40;99.90;;;;;;5012734;28;20052;-71
2021/10/06 05:18:02;;;;;;;4.72;1.02;;;17.30;99.90;;;;;;5012419;28;20033;-70
2021/10/06 05:20:28;;;;;;;2.70;0.70;;;17.30;99.90;;;;;;5012596;28;20143;-70
2021/10/06 05:22:53;;;;;;;2.13;0.65;;;17.30;99.90;;;;;;5011708;28;20022;-70
2021/10/06 05:25:20;;;;;;;1.95;0.60;;;17.30;99.90;;;;;;5012657;28;20033;-70
2021/10/06 05:27:47;;;;;;;2.65;0.68;;;17.30;99.90;;;;;;5007799;28;20051;-69
2021/10/06 05:30:13;;;;;;;3.75;0.55;;;17.30;99.90;;;;;;4992853;28;20536;-70
2021/10/06 05:32:39;;;;;;;1.77;0.40;;;17.30;99.90;;;;;;4992541;28;20085;-72
2021/10/06 05:35:05;;;;;;;1.25;0.52;;;17.30;99.90;;;;;;4992514;28;20026;-70
2021/10/06 05:37:31;;;;;;;2.30;0.68;;;17.30;99.90;;;;;;4992817;28;20040;-69
2021/10/06 05:39:56;;;;;;;4.22;0.70;;;17.20;99.90;;;;;;4992802;28;20022;-70
2021/10/06 05:42:22;;;;;;;1.75;0.35;;;17.30;99.90;;;;;;4992739;28;20474;-69
2021/10/06 05:44:48;;;;;;;2.00;0.60;;;17.20;99.90;;;;;;4992557;28;20037;-70
2021/10/06 05:47:13;;;;;;;2.35;0.77;;;17.20;99.90;;;;;;5010561;28;20030;-69
2021/10/06 05:49:40;;;;;;;3.90;0.70;;;17.20;99.90;;;;;;5011519;28;20052;-69
2021/10/06 05:52:05;;;;;;;1.73;0.57;;;17.20;99.90;;;;;;5011796;28;20040;-69
2021/10/06 05:54:31;;;;;;;1.48;0.50;;;17.20;99.90;;;;;;5011266;28;20101;-68
2021/10/06 05:56:57;;;;;;;2.20;0.70;;;17.20;99.90;;;;;;4992589;28;20475;-68
2021/10/06 05:59:23;;;;;;;3.20;0.60;;;17.20;99.90;;;;;;4992935;28;20031;-71
2021/10/06 06:01:48;;;;;;;2.42;0.70;;;17.20;99.90;;;;;;4992577;28;20026;-71
2021/10/06 06:04:17;;;;;;;2.20;0.85;;;17.20;99.90;;;;;;4998196;28;20382;-71
2021/10/06 06:06:46;;;;;;;3.72;0.70;;;17.20;99.90;;;;;;5012127;28;20088;-72
2021/10/06 06:09:12;;;;;;;3.33;0.60;;;17.20;99.90;;;;;;5012373;28;20064;-71
2021/10/06 06:11:38;;;;;;;3.50;0.60;;;17.20;99.90;;;;;;5011764;28;20042;-70
2021/10/06 06:14:06;;;;;;;1.83;0.52;;;17.20;99.90;;;;;;5011398;28;20133;-71
2021/10/06 06:16:32;;;;;;;3.00;0.70;;;17.20;99.90;;;;;;5012052;28;20033;-69
2021/10/06 06:18:58;;;;;;;2.38;0.60;;;17.20;99.90;;;;;;5011345;28;20044;-73
2021/10/06 06:21:24;;;;;;;2.15;0.68;;;17.20;99.90;;;;;;5011770;28;20422;-70
2021/10/06 06:23:50;;;;;;;2.05;0.70;;;17.10;99.90;;;;;;5011420;28;20018;-71
2021/10/06 06:26:15;;;;;;;2.30;0.70;;;17.20;99.90;;;;;;5011593;28;20512;-70
2021/10/06 06:28:41;;;;;;;3.05;0.70;;;17.20;99.90;;;;;;5011477;28;20504;-70
2021/10/06 06:31:08;;;;;;;4.30;0.90;;;17.20;99.90;;;;;;5011596;28;20438;-70
2021/10/06 06:33:34;;;;;;;2.10;0.82;;;17.20;99.90;;;;;;5015378;28;20030;-70
2021/10/06 06:36:00;;;;;;;2.75;1.00;;;17.20;99.90;;;;;;5017698;28;20528;-70
2021/10/06 06:38:27;;;;;;;3.22;1.10;;;17.20;99.90;;;;;;5013205;28;20033;-71
2021/10/06 06:40:53;;;;;;;4.47;1.08;;;17.10;99.90;;;;;;5001422;28;20025;-70
2021/10/06 06:43:19;;;;;;;2.80;0.85;;;17.10;99.90;;;;;;5018019;28;20026;-71
2021/10/06 06:45:44;;;;;;;4.70;0.93;;;17.10;99.90;;;;;;5017931;28;20025;-73
2021/10/06 06:48:11;;;;;;;3.80;1.17;;;17.00;99.90;;;;;;5009593;28;20054;-74
2021/10/06 06:50:37;;;;;;;6.22;1.13;;;17.00;99.90;;;;;;5006959;28;20030;-71
2021/10/06 06:53:03;;;;;;;6.60;1.10;;;17.00;99.90;;;;;;5016635;28;20119;-71
2021/10/06 06:55:28;;;;;;;5.05;1.15;;;17.00;99.90;;;;;;5015220;28;20045;-71
2021/10/06 06:57:54;;;;;;;4.82;0.90;;;17.00;99.90;;;;;;5013289;28;20026;-71
2021/10/06 07:00:19;;;;;;;2.97;0.88;;;16.90;99.90;;;;;;5013592;28;20114;-71
2021/10/06 07:02:45;;;;;;;6.65;1.00;;;16.90;99.90;;;;;;5012619;28;20030;-71
2021/10/06 07:05:11;;;;;;;5.15;1.25;;;16.90;99.90;;;;;;5013749;28;20033;-71
2021/10/06 07:07:36;;;;;;;6.28;1.42;;;16.90;99.90;;;;;;5010110;28;20038;-71
2021/10/06 07:10:04;;;;;;;7.35;1.35;;;16.90;99.90;;;;;;5003542;28;20034;-71
2021/10/06 07:12:30;;;;;;;6.15;1.27;;;16.80;99.90;;;;;;5013575;28;20030;-72
2021/10/06 07:14:56;;;;;;;14.90;1.40;;;16.80;99.90;;;;;;5012910;28;20022;-74
2021/10/06 07:17:22;;;;;;;7.60;1.45;;;16.80;99.90;;;;;;5008769;28;20501;-79
2021/10/06 07:19:47;;;;;;;6.38;1.30;;;16.90;99.90;;;;;;5005154;28;20066;-78
2021/10/06 07:22:14;;;;;;;6.75;0.88;;;16.90;99.90;;;;;;5004538;28;20021;-82
2021/10/06 07:24:40;;;;;;;5.47;0.93;;;16.90;99.90;;;;;;5002483;28;20482;-76
2021/10/06 07:27:06;;;;;;;6.13;1.30;;;17.00;99.90;;;;;;5003799;28;20052;-78
2021/10/06 07:29:31;;;;;;;4.18;1.00;;;17.00;99.90;;;;;;5005222;28;20021;-77
2021/10/06 07:31:57;;;;;;;4.85;1.20;;;17.10;99.90;;;;;;5014108;28;20056;-73
2021/10/06 07:34:23;;;;;;;3.03;0.90;;;17.10;99.90;;;;;;4996508;28;20386;-75
2021/10/06 07:36:49;;;;;;;4.45;1.00;;;17.20;99.90;;;;;;5013131;28;20049;-74
2021/10/06 07:39:15;;;;;;;6.82;1.00;;;17.30;99.90;;;;;;5012516;28;20022;-78
2021/10/06 07:41:41;;;;;;;4.95;0.90;;;17.40;99.90;;;;;;5013070;28;20040;-78
2021/10/06 07:44:07;;;;;;;2.30;0.80;;;17.50;99.90;;;;;;5001190;28;20022;-81
2021/10/06 07:46:33;;;;;;;6.97;1.40;;;17.50;99.90;;;;;;4982846;28;20165;-81
2021/10/06 07:48:58;;;;;;;3.75;1.05;;;17.50;99.90;;;;;;5000571;28;20043;-77
2021/10/06 07:51:24;;;;;;;5.78;1.00;;;17.60;99.90;;;;;;5000238;28;20069;-78
2021/10/06 07:53:50;;;;;;;3.15;0.82;;;17.70;99.90;;;;;;5009618;28;20116;-79
2021/10/06 07:56:16;;;;;;;3.75;1.00;;;17.80;99.90;;;;;;5009954;28;20034;-82
2021/10/06 07:58:42;;;;;;;4.78;1.10;;;17.80;99.90;;;;;;5008480;28;20030;-80
2021/10/06 08:01:08;;;;;;;5.18;1.10;;;17.90;99.90;;;;;;4999109;28;20054;-76
2021/10/06 08:03:34;;;;;;;8.40;0.90;;;17.90;99.90;;;;;;5000134;28;20041;-78
2021/10/06 08:05:59;;;;;;;5.97;1.00;;;18.00;99.90;;;;;;5009331;28;20658;-75
2021/10/06 08:08:28;;;;;;;3.80;0.88;;;18.00;99.90;;;;;;5008268;28;20535;-75
2021/10/06 08:10:55;;;;;;;2.10;0.88;;;18.10;99.90;;;;;;5008773;28;20116;-73
2021/10/06 08:13:22;;;;;;;3.45;0.95;;;18.10;99.90;;;;;;5008485;28;20097;-78
2021/10/06 08:15:49;;;;;;;3.75;0.98;;;18.20;99.90;;;;;;4992520;28;20030;-71
2021/10/06 08:18:16;;;;;;;3.20;0.80;;;18.20;99.90;;;;;;5009253;28;20556;-74
2021/10/06 08:20:44;;;;;;;3.72;1.00;;;18.30;99.90;;;;;;5000055;28;20084;-75
2021/10/06 08:23:10;;;;;;;4.75;1.08;;;18.40;99.90;;;;;;5009593;28;20038;-77
2021/10/06 08:25:36;;;;;;;3.72;0.80;;;18.40;99.90;;;;;;5008318;28;20083;-74
2021/10/06 08:28:01;;;;;;;2.55;0.77;;;18.40;99.90;;;;;;5008802;28;20540;-78
2021/10/06 08:30:28;;;;;;;4.85;1.10;;;18.50;99.90;;;;;;5008781;28;20037;-74
2021/10/06 08:32:54;;;;;;;3.60;0.90;;;18.50;99.90;;;;;;5008579;28;20030;-75
2021/10/06 08:35:20;;;;;;;4.35;0.70;;;18.60;99.90;;;;;;4998436;28;20036;-79
2021/10/06 08:37:45;;;;;;;3.30;1.20;;;18.60;99.90;;;;;;5007740;28;20038;-81
2021/10/06 08:40:12;;;;;;;2.75;0.82;;;18.60;99.90;;;;;;5008571;28;20026;-77
2021/10/06 08:42:40;;;;;;;1.80;0.75;;;18.70;99.90;;;;;;5008413;28;20441;-76
2021/10/06 08:45:07;;;;;;;4.35;0.98;;;18.70;99.90;;;;;;5008214;28;20034;-74
2021/10/06 08:47:39;;;;;;;4.25;0.90;;;18.80;99.90;;;;;;5008599;28;20029;-73
2021/10/06 08:50:07;;;;;;;2.47;0.57;;;18.80;99.90;;;;;;5009742;28;20437;-81
2021/10/06 08:52:32;;;;;;;2.90;1.05;;;18.90;99.90;;;;;;5008550;28;20096;-76
2021/10/06 08:55:00;;;;;;;2.00;0.80;;;18.90;99.90;;;;;;5008655;28;20086;-74
2021/10/06 08:57:26;;;;;;;5.30;1.00;;;18.90;99.90;;;;;;5007513;28;20034;-74
2021/10/06 08:59:52;;;;;;;4.45;0.90;;;19.00;99.90;;;;;;5010461;28;20089;-77
2021/10/06 09:02:18;;;;;;;3.15;0.68;;;19.00;99.90;;;;;;4980903;28;20026;-77
2021/10/06 09:04:44;;;;;;;4.70;0.85;;;19.10;99.90;;;;;;4995356;28;20064;-79
2021/10/06 09:07:10;;;;;;;3.30;0.90;;;19.10;99.90;;;;;;5012880;28;20054;-82
2021/10/06 09:09:37;;;;;;;5.38;1.10;;;19.10;99.90;;;;;;5008956;28;20071;-74
2021/10/06 09:12:12;;;;;;;2.33;0.63;;;19.20;99.90;;;;;;5010209;28;20038;-82
2021/10/06 09:14:46;;;;;;;2.65;0.70;;;19.20;99.90;;;;;;5010091;28;20044;-75
2021/10/06 09:17:14;;;;;;;;;;;19.30;99.90;;;;;;5010016;28;20374;-82
2021/10/06 09:19:44;;;;;;;3.08;0.80;;;19.30;99.90;;;;;;4999374;28;19916;-82
2021/10/06 09:22:30;;;;;;;3.97;0.85;;;19.30;99.90;;;;;;4998177;28;20025;-83
2021/10/06 09:25:02;;;;;;;4.22;0.90;;;19.40;99.90;;;;;;5007813;28;20065;-77
2021/10/06 09:27:30;;;;;;;2.45;0.68;;;19.40;99.90;;;;;;5008890;28;20030;-77
2021/10/06 09:29:59;;;;;;;5.88;0.80;;;19.40;99.90;;;;;;5007534;28;20030;-79
2021/10/06 09:32:45;;;;;;;6.80;1.08;;;19.40;99.90;;;;;;5007391;28;20088;-76
2021/10/06 09:35:20;;;;;;;3.78;0.65;;;19.50;99.90;;;;;;5008666;28;20474;-74
2021/10/06 09:37:53;;;;;;;2.88;0.70;;;19.50;99.90;;;;;;5007896;28;20029;-74
2021/10/06 09:40:23;;;;;;;2.70;1.05;;;19.50;99.90;;;;;;5007563;28;21763;-75
2021/10/06 09:42:51;;;;;;;2.75;0.73;;;19.60;99.90;;;;;;4990215;28;20069;-74
2021/10/06 09:45:51;;;;;;;5.15;0.82;;;19.60;99.90;;;;;;5007946;28;20026;-84
2021/10/06 09:48:34;;;;;;;2.30;0.65;;;19.60;99.90;;;;;;5007816;28;20117;-77
2021/10/06 09:51:06;;;;;;;2.72;0.60;;;19.60;99.90;;;;;;5006850;28;20033;-74
2021/10/06 09:53:32;;;;;;;4.43;1.05;;;19.70;99.90;;;;;;5006769;28;20065;-76
2021/10/06 09:56:04;;;;;;;2.85;0.73;;;19.70;99.90;;;;;;4990115;28;20053;-77
2021/10/06 09:58:30;;;;;;;1.65;0.52;;;19.70;99.90;;;;;;5009412;28;20556;-75
2021/10/06 10:00:57;;;;;;;3.70;0.50;;;19.80;99.90;;;;;;5007829;28;20025;-77
2021/10/06 10:03:23;;;;;;;1.92;0.63;;;19.80;99.90;;;;;;5007978;28;20045;-76
2021/10/06 10:05:49;;;;;;;3.40;0.80;;;19.80;99.90;;;;;;5005804;28;20038;-75
2021/10/06 10:08:15;;;;;;;3.08;0.80;;;20.00;99.90;;;;;;4996372;28;20034;-76
2021/10/06 10:10:41;;;;;;;4.40;0.95;;;20.00;99.90;;;;;;4997158;28;20100;-73
2021/10/06 10:13:07;;;;;;;10.02;0.95;;;20.00;99.90;;;;;;5011759;28;20069;-77
2021/10/06 10:15:33;;;;;;;5.10;0.80;;;20.00;99.90;;;;;;5007889;28;20040;-73
2021/10/06 10:18:02;;;;;;;2.92;0.70;;;20.00;99.90;;;;;;5010008;28;20038;-77
2021/10/06 10:20:45;;;;;;;2.47;0.80;;;20.00;99.90;;;;;;5011810;28;20469;-76
2021/10/06 10:23:15;;;;;;;4.82;0.93;;;20.00;99.90;;;;;;5010832;28;20382;-74
2021/10/06 10:25:43;;;;;;;2.20;0.65;;;20.00;99.90;;;;;;5011428;28;20029;-76
2021/10/06 10:28:10;;;;;;;4.63;0.98;;;19.90;99.90;;;;;;5009717;28;20041;-72
2021/10/06 10:30:39;;;;;;;3.28;1.02;;;19.90;99.90;;;;;;5009264;28;20042;-77
2021/10/06 10:33:06;;;;;;;2.25;0.70;;;19.90;99.90;;;;;;5011676;28;20030;-76
2021/10/06 10:35:42;;;;;;;2.13;0.70;;;19.90;99.90;;;;;;5008134;28;20033;-76
2021/10/06 10:38:10;;;;;;;2.83;0.70;;;19.90;99.90;;;;;;5011729;28;20418;-76
2021/10/06 10:40:42;;;;;;;3.47;0.90;;;19.90;99.90;;;;;;5012003;28;20076;-75
2021/10/06 10:43:11;;;;;;;2.90;0.80;;;19.90;99.90;;;;;;5004771;28;20026;-76
2021/10/06 10:45:43;;;;;;;2.25;0.77;;;19.90;99.90;;;;;;5010787;28;20486;-76
2021/10/06 10:48:15;;;;;;;3.15;0.88;;;19.80;99.90;;;;;;5010566;28;20438;-75
2021/10/06 10:51:01;;;;;;;2.20;0.82;;;19.80;99.90;;;;;;5004063;28;20034;-75
2021/10/06 10:53:54;;;;;;;1.77;0.77;;;19.80;99.90;;;;;;5010927;28;20033;-76
2021/10/06 10:56:44;;;;;;;3.63;1.15;;;19.80;99.90;;;;;;5011608;28;20018;-73
2021/10/06 10:59:19;;;;;;;4.25;0.90;;;19.80;99.90;;;;;;5011403;28;20385;-73
2021/10/06 11:01:58;;;;;;;2.47;0.90;;;19.70;99.90;;;;;;5011245;28;20061;-73
2021/10/06 11:04:24;;;;;;;2.42;0.80;;;19.80;99.90;;;;;;5008945;28;20026;-73
2021/10/06 11:06:52;;;;;;;2.42;0.90;;;19.80;99.90;;;;;;5010667;28;20022;-74
2021/10/06 11:09:30;;;;;;;5.63;1.00;;;19.80;99.90;;;;;;5008034;28;20030;-73
2021/10/06 11:12:18;;;;;;;2.30;0.82;;;19.80;99.90;;;;;;4999610;28;20034;-74
2021/10/06 11:14:46;;;;;;;2.70;0.80;;;19.70;99.90;;;;;;4999334;28;20470;-76
2021/10/06 11:17:16;;;;;;;3.88;0.80;;;19.70;99.90;;;;;;5000698;28;20037;-74
2021/10/06 11:19:50;;;;;;;3.33;0.82;;;19.70;99.90;;;;;;4981478;28;20034;-74
2021/10/06 11:22:22;;;;;;;2.85;0.90;;;19.70;99.90;;;;;;5011642;28;20378;-76
2021/10/06 11:25:09;;;;;;;4.43;1.17;;;19.70;99.90;;;;;;5014413;28;20854;-76
2021/10/06 11:27:50;;;;;;;5.05;1.10;;;19.70;99.90;;;;;;5002166;28;20553;-75
2021/10/06 11:30:17;;;;;;;2.40;1.00;;;19.70;99.90;;;;;;5014828;28;20080;-74
2021/10/06 11:32:53;;;;;;;2.40;0.75;;;19.60;99.90;;;;;;5014342;28;20116;-76
2021/10/06 11:35:20;;;;;;;3.78;1.08;;;19.60;99.90;;;;;;5000079;28;20375;-75
2021/10/06 11:37:45;;;;;;;2.15;0.90;;;19.60;99.90;;;;;;5005410;28;20113;-74
2021/10/06 11:40:16;;;;;;;3.15;0.90;;;19.60;99.90;;;;;;4987767;28;20061;-75
2021/10/06 11:42:42;;;;;;;2.75;1.00;;;19.60;99.90;;;;;;5012021;28;20022;-74
2021/10/06 11:45:23;;;;;;;3.35;0.90;;;19.60;99.90;;;;;;5014821;28;20034;-74
2021/10/06 11:47:48;;;;;;;4.78;0.98;;;19.60;99.90;;;;;;4996513;28;20034;-74
2021/10/06 11:50:14;;;;;;;3.03;0.85;;;19.50;99.90;;;;;;5014197;28;20105;-71
2021/10/06 11:52:40;;;;;;;3.47;1.10;;;19.50;99.90;;;;;;5014212;28;20478;-71
2021/10/06 11:55:06;;;;;;;3.47;0.70;;;19.50;99.90;;;;;;5007111;28;20026;-76
2021/10/06 11:57:32;;;;;;;2.78;1.02;;;19.40;99.90;;;;;;5002941;28;20033;-78
2021/10/06 11:59:57;;;;;;;3.95;1.02;;;19.40;99.90;;;;;;5004549;28;20381;-75
2021/10/06 12:02:23;;;;;;;3.15;0.93;;;19.40;99.90;;;;;;4997224;28;20018;-80
2021/10/06 12:04:55;;;;;;;2.63;0.80;;;19.40;99.90;;;;;;4994267;28;20027;-75
2021/10/06 12:07:29;;;;;;;2.47;0.85;;;19.40;99.90;;;;;;4994467;28;20050;-74
2021/10/06 12:09:58;;;;;;;;;;;19.40;99.90;;;;;;5010500;28;20482;-75
2021/10/06 12:12:26;;;;;;;2.35;0.75;;;19.40;99.90;;;;;;5013219;28;19913;-73
2021/10/06 12:15:00;;;;;;;2.15;0.60;;;19.40;99.90;;;;;;4994073;28;20113;-72
2021/10/06 12:17:27;;;;;;;3.55;0.98;;;19.40;99.90;;;;;;4996325;28;20069;-74
2021/10/06 12:19:57;;;;;;;2.65;1.10;;;19.40;99.90;;;;;;5013657;28;20026;-73
2021/10/06 12:22:23;;;;;;;2.42;0.90;;;19.40;99.90;;;;;;4996117;28;20026;-71
2021/10/06 12:24:55;;;;;;;6.75;1.15;;;19.40;99.90;;;;;;4996061;28;20022;-74
2021/10/06 12:27:32;;;;;;;3.03;0.82;;;19.40;99.90;;;;;;5005927;28;20026;-72
2021/10/06 12:30:25;;;;;;;3.28;0.90;;;19.40;99.90;;;;;;4994161;28;20030;-72
2021/10/06 12:33:15;;;;;;;2.38;0.82;;;19.40;99.90;;;;;;4991929;28;20042;-72
2021/10/06 12:35:48;;;;;;;5.57;1.00;;;19.40;99.90;;;;;;4994209;28;20029;-71
2021/10/06 12:38:15;;;;;;;2.47;0.77;;;19.50;99.90;;;;;;4994204;28;20093;-73
2021/10/06 12:40:49;;;;;;;1.83;0.60;;;19.50;99.90;;;;;;4993863;28;20411;-70
2021/10/06 12:43:20;;;;;;;3.65;1.00;;;19.50;99.90;;;;;;5002688;28;20367;-72
2021/10/06 12:46:08;;;;;;;2.20;0.60;;;19.50;99.90;;;;;;5012820;28;20088;-72
2021/10/06 12:48:39;;;;;;;1.73;0.93;;;19.50;99.90;;;;;;5013296;28;20505;-73
2021/10/06 12:51:07;;;;;;;3.03;1.00;;;19.50;99.90;;;;;;4994387;28;20470;-73